createdAt,value
2022-08-04T00:01:45.935Z,14.07
2022-08-04T00:04:41.542Z,7.80
2022-08-04T00:07:44.449Z,7.97
2022-08-04T00:10:16.391Z,17.67
2022-08-04T00:12:47.695Z,9.00
2022-08-04T00:15:16.567Z,25.83
2022-08-04T00:17:49.569Z,10.37
2022-08-04T00:20:19.251Z,5.40
2022-08-04T00:22:48.102Z,16.97
2022-08-04T00:25:15.435Z,12.30
2022-08-04T00:27:42.086Z,8.70
2022-08-04T00:30:09.320Z,10.87
2022-08-04T00:32:36.181Z,11.90
2022-08-04T00:35:03.530Z,9.10
2022-08-04T00:37:30.682Z,9.23
2022-08-04T00:39:57.525Z,7.00
2022-08-04T00:42:37.399Z,10.40
2022-08-04T00:46:15.290Z,8.20
2022-08-04T00:49:00.885Z,8.50
2022-08-04T00:52:32.053Z,6.07
2022-08-04T00:54:54.670Z,16.33
2022-08-04T00:57:42.043Z,5.73
2022-08-04T01:00:14.374Z,11.83
2022-08-04T01:02:56.453Z,9.07
2022-08-04T01:05:52.097Z,7.47
2022-08-04T01:08:37.247Z,6.23
2022-08-04T01:11:16.079Z,8.10
2022-08-04T01:14:20.029Z,15.17
2022-08-04T01:16:53.157Z,8.00
2022-08-04T01:19:43.337Z,7.93
2022-08-04T01:22:32.366Z,7.80
2022-08-04T01:25:18.627Z,9.20
2022-08-04T01:28:06.895Z,8.97
2022-08-04T01:30:36.148Z,3.17
2022-08-04T01:33:07.954Z,8.60
2022-08-04T01:35:56.778Z,13.03
2022-08-04T01:38:30.362Z,12.63
2022-08-04T01:41:00.451Z,9.47
2022-08-04T01:43:29.414Z,4.97
2022-08-04T01:46:01.109Z,8.27
2022-08-04T01:48:29.250Z,8.53
2022-08-04T01:51:05.499Z,8.37
2022-08-04T01:53:35.017Z,13.73
2022-08-04T01:56:02.967Z,9.00
2022-08-04T01:58:32.336Z,11.90
2022-08-04T02:01:04.926Z,4.17
2022-08-04T02:04:19.868Z,5.10
2022-08-04T02:06:34.666Z,5.00
2022-08-04T02:09:16.546Z,10.77
2022-08-04T02:11:49.448Z,8.77
2022-08-04T02:14:40.832Z,4.57
2022-08-04T02:17:12.634Z,6.30
2022-08-04T02:20:03.863Z,5.13
2022-08-04T02:22:32.821Z,7.73
2022-08-04T02:25:10.313Z,11.03
2022-08-04T02:28:00.122Z,14.43
2022-08-04T02:30:37.746Z,8.20
2022-08-04T02:33:06.930Z,4.37
2022-08-04T02:35:38.467Z,6.33
2022-08-04T02:38:16.390Z,8.60
2022-08-04T02:40:43.658Z,7.23
2022-08-04T02:43:11.168Z,8.90
2022-08-04T02:45:43.394Z,11.10
2022-08-04T02:48:30.698Z,7.53
2022-08-04T02:50:59.726Z,7.77
2022-08-04T02:53:29.310Z,7.33
2022-08-04T02:55:57.466Z,3.97
2022-08-04T02:58:31.619Z,6.17
2022-08-04T03:00:58.411Z,9.13
2022-08-04T03:03:28.214Z,10.77
2022-08-04T03:06:13.214Z,13.23
2022-08-04T03:09:19.284Z,5.33
2022-08-04T03:12:11.329Z,6.93
2022-08-04T03:14:55.266Z,6.30
2022-08-04T03:17:52.367Z,4.87
2022-08-04T03:20:37.285Z,4.20
2022-08-04T03:23:24.689Z,6.60
2022-08-04T03:26:14.508Z,4.87
2022-08-04T03:29:36.717Z,4.37
2022-08-04T03:32:41.310Z,5.17
2022-08-04T03:35:35.889Z,3.40
2022-08-04T03:38:18.089Z,10.23
2022-08-04T03:42:03.084Z,5.07
2022-08-04T03:44:30.016Z,14.50
2022-08-04T03:47:07.775Z,7.13
2022-08-04T03:50:03.123Z,16.23
2022-08-04T03:53:08.604Z,9.23
2022-08-04T03:55:53.146Z,7.83
2022-08-04T03:58:38.333Z,4.60
2022-08-04T04:01:30.834Z,7.70
2022-08-04T04:04:33.208Z,8.23
2022-08-04T04:07:36.365Z,6.33
2022-08-04T04:10:26.820Z,7.30
2022-08-04T04:13:06.905Z,12.73
2022-08-04T04:16:17.202Z,3.50
2022-08-04T04:18:54.270Z,5.33
2022-08-04T04:21:27.270Z,4.03
2022-08-04T04:24:11.072Z,6.40
2022-08-04T04:26:51.471Z,3.40
2022-08-04T04:29:45.787Z,4.07
2022-08-04T04:32:52.747Z,11.90
2022-08-04T04:35:31.660Z,8.73
2022-08-04T04:38:16.907Z,9.50
2022-08-04T04:41:15.378Z,4.30
2022-08-04T04:44:35.811Z,4.70
2022-08-04T04:47:43.271Z,12.37
2022-08-04T04:50:41.729Z,7.53
2022-08-04T04:53:33.157Z,8.23
2022-08-04T04:56:27.279Z,7.00
2022-08-04T04:58:56.683Z,5.53
2022-08-04T05:01:51.053Z,6.60
2022-08-04T05:04:29.527Z,7.87
2022-08-04T05:07:24.197Z,11.47
2022-08-04T05:10:03.311Z,6.43
2022-08-04T05:14:36.959Z,6.30
2022-08-04T05:15:45.404Z,6.97
2022-08-04T05:18:19.208Z,8.67
2022-08-04T05:20:52.427Z,6.90
2022-08-04T05:23:28.850Z,9.30
2022-08-04T05:26:10.030Z,12.13
2022-08-04T05:28:41.396Z,9.97
2022-08-04T05:31:20.294Z,9.90
2022-08-04T05:33:57.514Z,9.00
2022-08-04T05:36:40.877Z,9.73
2022-08-04T05:39:13.306Z,11.67
2022-08-04T05:41:45.252Z,16.03
2022-08-04T05:44:15.147Z,13.53
2022-08-04T05:46:44.212Z,12.33
2022-08-04T05:49:16.527Z,4.97
2022-08-04T05:51:48.808Z,6.70
2022-08-04T05:54:18.403Z,6.50
2022-08-04T05:56:46.087Z,13.63
2022-08-04T05:59:13.505Z,12.97
2022-08-04T06:01:56.106Z,16.63
2022-08-04T06:04:30.982Z,12.63
2022-08-04T06:06:57.653Z,11.80
2022-08-04T06:09:24.594Z,14.67
2022-08-04T06:12:00.883Z,24.70
2022-08-04T06:14:36.976Z,20.63
2022-08-04T06:17:06.011Z,20.23
2022-08-04T06:20:00.175Z,7.97
2022-08-04T06:22:43.032Z,16.80
2022-08-04T06:25:12.112Z,15.23
2022-08-04T06:27:40.310Z,15.30
2022-08-04T06:30:10.367Z,12.37
2022-08-04T06:32:47.308Z,15.20
2022-08-04T06:35:16.704Z,44.93
2022-08-04T06:37:44.553Z,15.63
2022-08-04T06:40:31.258Z,18.83
2022-08-04T06:43:01.935Z,14.13
2022-08-04T06:45:29.389Z,23.23
2022-08-04T06:47:56.886Z,12.50
2022-08-04T06:51:32.109Z,10.93
2022-08-04T06:53:11.748Z,26.23
2022-08-04T06:55:40.002Z,7.77
2022-08-04T06:58:07.626Z,8.83
2022-08-04T07:00:36.393Z,12.43
2022-08-04T07:03:04.383Z,10.90
2022-08-04T07:05:31.958Z,25.83
2022-08-04T07:07:59.381Z,17.80
2022-08-04T07:10:30.712Z,11.57
2022-08-04T07:13:01.609Z,12.20
2022-08-04T07:15:28.974Z,14.87
2022-08-04T07:18:01.814Z,14.53
2022-08-04T07:20:34.386Z,8.80
2022-08-04T07:23:06.923Z,9.77
2022-08-04T07:25:59.569Z,10.37
2022-08-04T07:28:26.466Z,10.37
2022-08-04T07:30:54.622Z,9.43
2022-08-04T07:33:21.871Z,4.47
2022-08-04T07:36:09.412Z,5.67
2022-08-04T07:38:48.409Z,6.50
2022-08-04T07:41:39.083Z,5.37
2022-08-04T07:44:06.763Z,11.10
2022-08-04T07:46:33.638Z,8.27
2022-08-04T07:49:01.206Z,4.43
2022-08-04T07:51:30.395Z,11.77
2022-08-04T07:53:58.069Z,13.63
2022-08-04T07:56:26.641Z,11.53
2022-08-04T07:58:53.926Z,13.00
2022-08-04T08:01:21.462Z,7.73
2022-08-04T08:03:48.983Z,5.93
2022-08-04T08:06:17.601Z,6.60
2022-08-04T08:09:00.946Z,7.50
2022-08-04T08:12:35.502Z,8.20
2022-08-04T08:14:28.187Z,6.13
2022-08-04T08:16:54.937Z,10.00
2022-08-04T08:19:21.795Z,8.87
2022-08-04T08:21:59.325Z,13.57
2022-08-04T08:24:28.327Z,8.93
2022-08-04T08:26:56.777Z,4.83
2022-08-04T08:29:24.302Z,5.07
2022-08-04T08:31:58.388Z,11.70
2022-08-04T08:34:30.949Z,12.80
2022-08-04T08:37:33.726Z,6.80
2022-08-04T08:48:04.949Z,6.10
2022-08-04T08:50:36.296Z,5.67
2022-08-04T08:53:25.168Z,7.77
2022-08-04T08:56:12.844Z,6.40
2022-08-04T08:58:57.313Z,5.53
2022-08-04T09:01:45.833Z,4.57
2022-08-04T09:04:47.664Z,6.10
2022-08-04T09:07:47.730Z,6.43
2022-08-04T09:10:33.100Z,4.87
2022-08-04T09:13:08.332Z,13.07
2022-08-04T09:16:01.860Z,4.67
2022-08-04T09:18:37.660Z,6.83
2022-08-04T09:21:25.689Z,5.77
2022-08-04T09:24:36.322Z,3.97
2022-08-04T09:27:05.375Z,4.57
2022-08-04T09:30:08.492Z,3.97
2022-08-04T09:32:47.154Z,3.93
2022-08-04T09:35:34.577Z,3.40
2022-08-04T09:38:11.774Z,5.80
2022-08-04T09:40:58.949Z,5.50
2022-08-04T09:44:42.753Z,11.83
2022-08-04T09:46:52.074Z,3.63
2022-08-04T09:49:29.695Z,4.70
2022-08-04T09:52:08.478Z,6.30
2022-08-04T09:54:52.959Z,3.23
2022-08-04T09:57:31.587Z,4.50
2022-08-04T10:00:09.165Z,3.37
2022-08-04T10:02:42.580Z,7.73
2022-08-04T10:05:16.238Z,7.37
2022-08-04T10:08:15.534Z,5.00
2022-08-04T10:11:12.440Z,5.60
2022-08-04T10:13:51.900Z,5.10
2022-08-04T10:16:35.844Z,2.70
2022-08-04T10:19:24.089Z,5.03
2022-08-04T10:22:44.758Z,2.50
2022-08-04T10:26:02.647Z,9.53
2022-08-04T10:28:25.005Z,3.00
2022-08-04T10:30:59.179Z,6.27
2022-08-04T10:33:31.193Z,4.30
2022-08-04T10:36:04.299Z,14.47
2022-08-04T10:38:40.951Z,10.13
2022-08-04T10:41:52.883Z,2.30
2022-08-04T10:44:42.287Z,4.97
2022-08-04T10:47:20.144Z,9.63
2022-08-04T10:49:54.666Z,5.77
2022-08-04T10:52:42.410Z,3.97
2022-08-04T10:55:19.898Z,2.53
2022-08-04T10:57:52.618Z,6.43
2022-08-04T11:00:25.586Z,4.80
2022-08-04T11:02:55.519Z,3.43
2022-08-04T11:05:43.826Z,3.87
2022-08-04T11:08:35.559Z,3.90
2022-08-04T11:11:24.350Z,2.80
2022-08-04T11:14:04.134Z,2.40
2022-08-04T11:16:54.702Z,7.13
2022-08-04T11:19:45.026Z,4.90
2022-08-04T11:22:25.346Z,5.10
2022-08-04T11:25:21.771Z,9.87
2022-08-04T11:28:07.751Z,2.40
2022-08-04T11:30:45.623Z,4.73
2022-08-04T11:33:15.258Z,5.60
2022-08-04T11:35:50.583Z,2.13
2022-08-04T11:38:41.664Z,7.10
2022-08-04T11:41:15.926Z,2.10
2022-08-04T11:44:00.692Z,3.23
2022-08-04T11:46:55.907Z,2.77
2022-08-04T11:49:56.980Z,11.03
2022-08-04T11:52:28.081Z,4.00
2022-08-04T11:54:55.793Z,5.37
2022-08-04T11:57:35.053Z,8.23
2022-08-04T12:00:10.202Z,4.33
2022-08-04T12:02:51.980Z,2.67
2022-08-04T12:05:35.752Z,3.47
2022-08-04T12:08:40.892Z,2.00
2022-08-04T12:11:26.610Z,2.50
2022-08-04T12:14:21.107Z,3.43
2022-08-04T12:17:03.462Z,2.83
2022-08-04T12:20:05.117Z,3.47
2022-08-04T12:22:47.286Z,2.33
2022-08-04T12:25:20.811Z,2.90
2022-08-04T12:27:57.900Z,6.17
2022-08-04T12:30:59.070Z,3.27
2022-08-04T12:33:22.347Z,6.10
2022-08-04T12:36:05.263Z,3.00
2022-08-04T12:38:49.200Z,3.07
2022-08-04T12:41:23.092Z,2.20
2022-08-04T12:43:50.584Z,3.73
2022-08-04T12:46:25.898Z,2.53
2022-08-04T12:48:58.881Z,4.10
2022-08-04T12:51:30.940Z,2.10
2022-08-04T12:54:28.704Z,2.23
2022-08-04T12:56:58.818Z,3.67
2022-08-04T12:59:25.805Z,2.70
2022-08-04T13:02:09.029Z,2.57
2022-08-04T13:04:42.631Z,1.90
2022-08-04T13:07:25.293Z,5.17
2022-08-04T13:09:53.364Z,1.70
2022-08-04T13:12:32.528Z,2.03
2022-08-04T13:15:10.647Z,2.00
2022-08-04T13:17:59.880Z,5.23
2022-08-04T13:20:38.569Z,2.23
2022-08-04T13:23:09.231Z,2.73
2022-08-04T13:26:45.049Z,3.80
2022-08-04T13:28:34.515Z,2.70
2022-08-04T13:31:05.193Z,3.97
2022-08-04T13:33:38.710Z,3.60
2022-08-04T13:36:07.373Z,4.17
2022-08-04T13:38:36.523Z,5.80
2022-08-04T13:41:05.642Z,1.93
2022-08-04T13:44:18.949Z,2.10
2022-08-04T13:46:40.455Z,2.27
2022-08-04T13:49:38.049Z,2.60
2022-08-04T13:52:10.960Z,2.20
2022-08-04T13:54:43.560Z,9.70
2022-08-04T13:57:19.299Z,3.80
2022-08-04T13:59:51.725Z,2.23
2022-08-04T14:02:58.489Z,2.47
2022-08-04T14:05:31.375Z,1.90
2022-08-04T14:08:15.197Z,2.97
2022-08-04T14:10:42.053Z,1.90
2022-08-04T14:13:08.809Z,16.73
2022-08-04T14:16:02.046Z,5.93
2022-08-04T14:18:29.740Z,3.00
2022-08-04T14:21:05.465Z,2.30
2022-08-04T14:23:47.426Z,2.70
2022-08-04T14:26:21.431Z,2.90
2022-08-04T14:29:26.976Z,5.80
2022-08-04T14:32:01.985Z,2.10
2022-08-04T14:34:30.375Z,2.80
2022-08-04T14:37:16.335Z,2.07
2022-08-04T14:40:07.922Z,4.70
2022-08-04T14:42:43.745Z,3.53
2022-08-04T14:45:10.954Z,1.80
2022-08-04T14:47:52.882Z,6.87
2022-08-04T14:50:20.769Z,12.53
2022-08-04T14:52:47.487Z,4.93
2022-08-04T14:55:23.312Z,9.60
2022-08-04T14:58:36.285Z,8.10
2022-08-04T15:00:38.060Z,6.70
2022-08-04T15:03:09.115Z,5.67
2022-08-04T15:06:02.095Z,3.50
2022-08-04T15:08:31.455Z,8.17
2022-08-04T15:11:03.233Z,10.70
2022-08-04T15:13:34.858Z,10.93
2022-08-04T15:16:08.166Z,8.30
2022-08-04T15:18:39.055Z,8.37
2022-08-04T15:21:06.943Z,5.43
2022-08-04T15:23:38.831Z,12.70
2022-08-04T15:26:09.757Z,16.30
2022-08-04T15:28:38.330Z,5.50
2022-08-04T15:32:04.376Z,11.20
2022-08-04T15:33:58.022Z,6.80
2022-08-04T15:36:37.854Z,12.80
2022-08-04T15:39:38.006Z,13.90
2022-08-04T15:42:32.242Z,8.70
2022-08-04T15:45:04.217Z,7.00
2022-08-04T15:47:31.325Z,9.00
2022-08-04T15:50:12.522Z,14.43
2022-08-04T15:53:01.009Z,18.20
2022-08-04T15:55:41.283Z,16.60
2022-08-04T15:58:10.573Z,7.63
2022-08-04T16:00:54.117Z,10.97
2022-08-04T16:03:54.303Z,11.10
2022-08-04T16:06:22.532Z,7.73
2022-08-04T16:08:52.553Z,6.77
2022-08-04T16:11:31.848Z,6.00
2022-08-04T16:13:59.031Z,17.17
2022-08-04T16:16:31.699Z,17.63
2022-08-04T16:19:05.514Z,22.03
2022-08-04T16:21:35.426Z,13.73
2022-08-04T16:24:21.481Z,14.20
2022-08-04T16:26:56.430Z,15.60
2022-08-04T16:29:23.475Z,14.67
2022-08-04T16:32:05.534Z,11.50
2022-08-04T16:34:48.184Z,12.63
2022-08-04T16:37:19.187Z,10.93
2022-08-04T16:39:51.175Z,7.40
2022-08-04T16:42:30.620Z,14.53
2022-08-04T16:45:11.311Z,12.40
2022-08-04T16:47:49.924Z,14.20
2022-08-04T16:50:19.148Z,8.07
2022-08-04T16:52:52.030Z,4.43
2022-08-04T16:55:20.451Z,12.83
2022-08-04T16:57:48.147Z,15.57
2022-08-04T17:00:15.275Z,7.47
2022-08-04T17:02:43.475Z,7.13
2022-08-04T17:05:38.385Z,11.13
2022-08-04T17:10:56.833Z,7.17
2022-08-04T17:14:02.119Z,9.23
2022-08-04T17:16:23.765Z,9.33
2022-08-04T17:18:53.215Z,8.13
2022-08-04T17:21:32.415Z,13.33
2022-08-04T17:24:13.212Z,8.57
2022-08-04T17:26:54.009Z,10.07
2022-08-04T17:29:43.785Z,12.50
2022-08-04T17:32:16.422Z,10.13
2022-08-04T17:34:47.291Z,9.23
2022-08-04T17:40:11.466Z,12.87
2022-08-04T17:42:39.795Z,11.43
2022-08-04T17:47:55.804Z,9.60
2022-08-04T17:50:27.286Z,10.40
2022-08-04T17:53:11.688Z,26.03
2022-08-04T17:55:50.281Z,8.30
2022-08-04T17:58:20.896Z,11.00
2022-08-04T18:01:25.142Z,14.20
2022-08-04T18:03:53.662Z,13.43
2022-08-04T18:06:23.327Z,5.43
2022-08-04T18:08:57.978Z,7.23
2022-08-04T18:11:29.558Z,8.13
2022-08-04T18:14:08.550Z,9.83
2022-08-04T18:16:46.016Z,15.10
2022-08-04T18:19:19.013Z,9.60
2022-08-04T18:22:00.287Z,10.37
2022-08-04T18:24:34.100Z,10.87
2022-08-04T18:27:17.701Z,70.37
2022-08-04T18:30:14.946Z,15.13
2022-08-04T18:32:33.609Z,20.47
2022-08-04T18:38:06.716Z,17.90
2022-08-04T18:40:52.343Z,17.83
2022-08-04T18:43:28.393Z,11.57
2022-08-04T18:45:57.985Z,5.70
2022-08-04T18:48:36.302Z,11.67
2022-08-04T18:51:10.506Z,14.13
2022-08-04T18:53:55.144Z,10.80
2022-08-04T18:56:29.659Z,10.33
2022-08-04T18:59:03.706Z,6.73
2022-08-04T19:02:12.718Z,5.33
2022-08-04T19:04:32.760Z,11.23
2022-08-04T19:07:29.713Z,23.67
2022-08-04T19:09:58.226Z,6.93
2022-08-04T19:12:28.162Z,5.77
2022-08-04T19:14:58.378Z,5.57
2022-08-04T19:17:55.041Z,10.87
2022-08-04T19:20:15.762Z,4.80
2022-08-04T19:24:10.859Z,9.53
2022-08-04T19:25:59.959Z,4.87
2022-08-04T19:28:28.054Z,6.33
2022-08-04T19:30:57.997Z,4.80
2022-08-04T19:33:25.451Z,5.17
2022-08-04T19:35:52.922Z,8.67
2022-08-04T19:38:20.661Z,13.80
2022-08-04T19:40:50.552Z,3.50
2022-08-04T19:43:20.834Z,4.03
2022-08-04T19:45:50.588Z,9.47
2022-08-04T19:48:21.615Z,5.13
2022-08-04T19:50:49.303Z,4.67
2022-08-04T19:53:18.858Z,8.00
2022-08-04T19:58:34.271Z,6.33
2022-08-04T20:01:00.920Z,6.70
2022-08-04T20:04:08.915Z,10.70
2022-08-04T20:06:14.371Z,3.57
2022-08-04T20:08:48.003Z,7.93
2022-08-04T20:11:16.332Z,13.47
2022-08-04T20:13:43.907Z,6.00
2022-08-04T20:16:29.697Z,8.03
2022-08-04T20:19:02.821Z,7.20
2022-08-04T20:21:54.146Z,8.47
2022-08-04T20:27:08.784Z,3.80
2022-08-04T20:29:40.125Z,5.63
2022-08-04T20:32:09.596Z,9.40
2022-08-04T20:34:36.937Z,9.33
2022-08-04T20:37:03.822Z,6.20
2022-08-04T20:39:30.856Z,4.20
2022-08-04T20:41:57.833Z,6.63
2022-08-04T20:44:24.611Z,7.30
2022-08-04T20:46:51.287Z,13.60
2022-08-04T20:49:17.987Z,13.53
2022-08-04T20:51:44.732Z,7.50
2022-08-04T20:54:16.013Z,18.37
2022-08-04T20:56:50.761Z,12.30
2022-08-04T20:59:18.559Z,9.63
2022-08-04T21:01:48.868Z,13.53
2022-08-04T21:04:31.314Z,8.27
2022-08-04T21:07:03.599Z,10.47
2022-08-04T21:09:37.814Z,14.17
2022-08-04T21:12:10.642Z,15.37
2022-08-04T21:14:53.732Z,20.63
2022-08-04T21:17:21.177Z,16.07
2022-08-04T21:20:08.262Z,14.40
2022-08-04T21:22:39.873Z,15.47
2022-08-04T21:25:08.133Z,11.67
2022-08-04T21:27:43.394Z,14.13
2022-08-04T21:30:26.171Z,18.60
2022-08-04T21:32:55.115Z,13.20
2022-08-04T21:35:36.838Z,13.33
2022-08-04T21:38:17.106Z,15.00
2022-08-04T21:40:53.356Z,20.07
2022-08-04T21:43:23.763Z,21.93
2022-08-04T21:45:55.111Z,23.77
2022-08-04T21:48:23.158Z,17.93
2022-08-04T21:50:54.232Z,19.80
2022-08-04T21:53:21.475Z,25.60
2022-08-04T21:56:06.868Z,24.37
2022-08-04T21:58:34.867Z,25.50
2022-08-04T22:01:12.635Z,20.80
2022-08-04T22:03:52.968Z,19.73
2022-08-04T22:06:28.550Z,29.43
2022-08-04T22:08:56.771Z,33.10
2022-08-04T22:11:26.064Z,30.60
2022-08-04T22:16:41.560Z,33.63
2022-08-04T22:19:08.803Z,29.53
2022-08-04T22:21:39.329Z,21.10
2022-08-04T22:24:13.873Z,25.50
2022-08-04T22:26:41.063Z,38.53
2022-08-04T22:29:14.363Z,23.70
2022-08-04T22:31:55.933Z,20.17
2022-08-04T22:34:24.698Z,21.83
2022-08-04T22:36:51.388Z,42.03
2022-08-04T22:39:23.288Z,28.83
2022-08-04T22:42:03.270Z,26.00
2022-08-04T22:44:32.333Z,20.90
2022-08-04T22:47:00.016Z,24.47
2022-08-04T22:49:31.489Z,34.37
2022-08-04T22:51:58.849Z,25.23
2022-08-04T22:54:26.022Z,23.50
2022-08-04T22:56:55.390Z,27.83
2022-08-04T22:59:23.840Z,33.00
2022-08-04T23:01:59.284Z,27.17
2022-08-04T23:04:29.506Z,26.93
2022-08-04T23:06:56.219Z,26.47
2022-08-04T23:09:27.000Z,22.43
2022-08-04T23:12:24.269Z,21.53
2022-08-04T23:14:53.246Z,20.97
2022-08-04T23:17:21.857Z,33.70
2022-08-04T23:19:58.031Z,26.40
2022-08-04T23:22:42.048Z,25.37
2022-08-04T23:25:15.453Z,21.43
2022-08-04T23:27:50.869Z,24.07
2022-08-04T23:30:21.850Z,27.87
2022-08-04T23:32:53.076Z,23.63
2022-08-04T23:35:22.172Z,27.03
2022-08-04T23:37:56.574Z,26.93
2022-08-04T23:40:32.722Z,22.20
2022-08-04T23:43:00.588Z,24.73
2022-08-04T23:46:06.930Z,20.73
2022-08-04T23:48:20.883Z,25.80
2022-08-04T23:50:47.824Z,17.77
2022-08-04T23:53:18.608Z,28.13
2022-08-04T23:55:49.484Z,22.83
2022-08-04T23:58:18.661Z,26.17
